sensor_id;sensor_type;location;lat;lon;timestamp;temperature;humidity
3866;DHT22;1948;53.250;10.412;2023-08-06T00:00:52;17.90;99.90
3866;DHT22;1948;53.250;10.412;2023-08-06T00:03:22;17.90;99.90
3866;DHT22;1948;53.250;10.412;2023-08-06T00:05:52;17.80;99.90
3866;DHT22;1948;53.250;10.412;2023-08-06T00:08:18;17.80;99.90
3866;DHT22;1948;53.250;10.412;2023-08-06T00:10:48;17.80;99.90
3866;DHT22;1948;53.250;10.412;2023-08-06T00:13:15;17.80;99.90
3866;DHT22;1948;53.250;10.412;2023-08-06T00:15:45;17.70;99.90
3866;DHT22;1948;53.250;10.412;2023-08-06T00:18:12;17.70;99.90
3866;DHT22;1948;53.250;10.412;2023-08-06T00:20:42;17.70;99.90
3866;DHT22;1948;53.250;10.412;2023-08-06T00:23:09;17.70;99.90
3866;DHT22;1948;53.250;10.412;2023-08-06T00:25:38;17.70;99.90
3866;DHT22;1948;53.250;10.412;2023-08-06T00:28:05;17.70;99.90
3866;DHT22;1948;53.250;10.412;2023-08-06T00:30:32;17.70;99.90
3866;DHT22;1948;53.250;10.412;2023-08-06T00:33:01;17.70;99.90
3866;DHT22;1948;53.250;10.412;2023-08-06T00:35:32;17.70;99.90
3866;DHT22;1948;53.250;10.412;2023-08-06T00:38:03;17.70;99.90
3866;DHT22;1948;53.250;10.412;2023-08-06T00:40:33;17.70;99.90
3866;DHT22;1948;53.250;10.412;2023-08-06T00:43:00;17.70;99.90
3866;DHT22;1948;53.250;10.412;2023-08-06T00:45:27;17.70;99.90
3866;DHT22;1948;53.250;10.412;2023-08-06T00:48:01;17.60;99.90
3866;DHT22;1948;53.250;10.412;2023-08-06T00:50:31;17.60;99.90
3866;DHT22;1948;53.250;10.412;2023-08-06T00:53:00;17.60;99.90
3866;DHT22;1948;53.250;10.412;2023-08-06T00:55:27;17.60;99.90
3866;DHT22;1948;53.250;10.412;2023-08-06T00:57:55;17.60;99.90
3866;DHT22;1948;53.250;10.412;2023-08-06T01:00:26;17.50;99.90
3866;DHT22;1948;53.250;10.412;2023-08-06T01:02:55;17.60;99.90
3866;DHT22;1948;53.250;10.412;2023-08-06T01:05:25;17.60;99.90
3866;DHT22;1948;53.250;10.412;2023-08-06T01:14:23;17.50;99.90
3866;DHT22;1948;53.250;10.412;2023-08-06T01:16:55;17.50;99.90
3866;DHT22;1948;53.250;10.412;2023-08-06T01:19:25;17.50;99.90
3866;DHT22;1948;53.250;10.412;2023-08-06T01:21:54;17.50;99.90
3866;DHT22;1948;53.250;10.412;2023-08-06T01:24:21;17.40;99.90
3866;DHT22;1948;53.250;10.412;2023-08-06T01:27:08;17.40;99.90
3866;DHT22;1948;53.250;10.412;2023-08-06T01:29:45;17.40;99.90
3866;DHT22;1948;53.250;10.412;2023-08-06T01:32:16;17.40;99.90
3866;DHT22;1948;53.250;10.412;2023-08-06T01:34:44;17.30;99.90
3866;DHT22;1948;53.250;10.412;2023-08-06T01:37:13;17.40;99.90
3866;DHT22;1948;53.250;10.412;2023-08-06T01:39:42;17.30;99.90
3866;DHT22;1948;53.250;10.412;2023-08-06T01:42:10;17.30;99.90
3866;DHT22;1948;53.250;10.412;2023-08-06T01:44:37;17.30;99.90
3866;DHT22;1948;53.250;10.412;2023-08-06T01:47:04;17.30;99.90
3866;DHT22;1948;53.250;10.412;2023-08-06T01:49:33;17.30;99.90
3866;DHT22;1948;53.250;10.412;2023-08-06T01:52:00;17.30;99.90
3866;DHT22;1948;53.250;10.412;2023-08-06T01:54:27;17.30;99.90
3866;DHT22;1948;53.250;10.412;2023-08-06T01:56:55;17.40;99.90
3866;DHT22;1948;53.250;10.412;2023-08-06T01:59:22;17.30;99.90
3866;DHT22;1948;53.250;10.412;2023-08-06T02:01:48;17.30;99.90
3866;DHT22;1948;53.250;10.412;2023-08-06T02:04:18;17.40;99.90
3866;DHT22;1948;53.250;10.412;2023-08-06T02:06:45;17.30;99.90
3866;DHT22;1948;53.250;10.412;2023-08-06T02:09:14;17.40;99.90
3866;DHT22;1948;53.250;10.412;2023-08-06T02:11:41;17.40;99.90
3866;DHT22;1948;53.250;10.412;2023-08-06T02:14:13;17.40;99.90
3866;DHT22;1948;53.250;10.412;2023-08-06T02:16:40;17.40;99.90
3866;DHT22;1948;53.250;10.412;2023-08-06T02:19:06;17.30;99.90
3866;DHT22;1948;53.250;10.412;2023-08-06T02:21:33;17.30;99.90
3866;DHT22;1948;53.250;10.412;2023-08-06T02:24:00;17.40;99.90
3866;DHT22;1948;53.250;10.412;2023-08-06T02:26:28;17.40;99.90
3866;DHT22;1948;53.250;10.412;2023-08-06T02:28:55;17.40;99.90
3866;DHT22;1948;53.250;10.412;2023-08-06T02:31:22;17.40;99.90
3866;DHT22;1948;53.250;10.412;2023-08-06T02:33:49;17.40;99.90
3866;DHT22;1948;53.250;10.412;2023-08-06T02:36:15;17.40;99.90
3866;DHT22;1948;53.250;10.412;2023-08-06T02:38:42;17.40;99.90
3866;DHT22;1948;53.250;10.412;2023-08-06T02:41:11;17.40;99.90
3866;DHT22;1948;53.250;10.412;2023-08-06T02:43:38;17.40;99.90
3866;DHT22;1948;53.250;10.412;2023-08-06T02:46:05;17.40;99.90
3866;DHT22;1948;53.250;10.412;2023-08-06T02:48:32;17.40;99.90
3866;DHT22;1948;53.250;10.412;2023-08-06T02:51:02;17.30;99.90
3866;DHT22;1948;53.250;10.412;2023-08-06T02:53:29;17.30;99.90
3866;DHT22;1948;53.250;10.412;2023-08-06T02:55:56;17.30;99.90
3866;DHT22;1948;53.250;10.412;2023-08-06T02:58:23;17.30;99.90
3866;DHT22;1948;53.250;10.412;2023-08-06T03:03:34;17.30;99.90
3866;DHT22;1948;53.250;10.412;2023-08-06T03:06:04;17.30;99.90
3866;DHT22;1948;53.250;10.412;2023-08-06T03:08:31;17.30;99.90
3866;DHT22;1948;53.250;10.412;2023-08-06T03:10:58;17.30;99.90
3866;DHT22;1948;53.250;10.412;2023-08-06T03:13:25;17.30;99.90
3866;DHT22;1948;53.250;10.412;2023-08-06T03:15:59;17.30;99.90
3866;DHT22;1948;53.250;10.412;2023-08-06T03:18:26;17.30;99.90
3866;DHT22;1948;53.250;10.412;2023-08-06T03:20:53;17.30;99.90
3866;DHT22;1948;53.250;10.412;2023-08-06T03:23:21;17.30;99.90
3866;DHT22;1948;53.250;10.412;2023-08-06T03:25:48;17.30;99.90
3866;DHT22;1948;53.250;10.412;2023-08-06T03:28:15;17.20;99.90
3866;DHT22;1948;53.250;10.412;2023-08-06T03:30:44;17.20;99.90
3866;DHT22;1948;53.250;10.412;2023-08-06T03:33:11;17.30;99.90
3866;DHT22;1948;53.250;10.412;2023-08-06T03:35:43;17.20;99.90
3866;DHT22;1948;53.250;10.412;2023-08-06T03:38:10;17.20;99.90
3866;DHT22;1948;53.250;10.412;2023-08-06T03:40:37;17.30;99.90
3866;DHT22;1948;53.250;10.412;2023-08-06T03:43:04;17.30;99.90
3866;DHT22;1948;53.250;10.412;2023-08-06T03:45:33;17.30;99.90
3866;DHT22;1948;53.250;10.412;2023-08-06T03:48:00;17.40;99.90
3866;DHT22;1948;53.250;10.412;2023-08-06T03:50:27;17.30;99.90
3866;DHT22;1948;53.250;10.412;2023-08-06T03:52:57;17.20;99.90
3866;DHT22;1948;53.250;10.412;2023-08-06T03:55:24;17.20;99.90
3866;DHT22;1948;53.250;10.412;2023-08-06T03:57:51;17.20;99.90
3866;DHT22;1948;53.250;10.412;2023-08-06T04:00:18;17.20;99.90
3866;DHT22;1948;53.250;10.412;2023-08-06T04:02:50;17.10;99.90
3866;DHT22;1948;53.250;10.412;2023-08-06T04:05:22;17.10;99.90
3866;DHT22;1948;53.250;10.412;2023-08-06T04:07:49;17.10;99.90
3866;DHT22;1948;53.250;10.412;2023-08-06T04:10:18;17.10;99.90
3866;DHT22;1948;53.250;10.412;2023-08-06T04:12:45;17.20;99.90
3866;DHT22;1948;53.250;10.412;2023-08-06T04:15:12;17.10;99.90
3866;DHT22;1948;53.250;10.412;2023-08-06T04:17:39;17.10;99.90
3866;DHT22;1948;53.250;10.412;2023-08-06T04:20:07;17.10;99.90
3866;DHT22;1948;53.250;10.412;2023-08-06T04:22:36;17.20;99.90
3866;DHT22;1948;53.250;10.412;2023-08-06T04:25:04;17.20;99.90
3866;DHT22;1948;53.250;10.412;2023-08-06T04:27:31;17.10;99.90
3866;DHT22;1948;53.250;10.412;2023-08-06T04:29:58;17.10;99.90
3866;DHT22;1948;53.250;10.412;2023-08-06T04:32:25;17.10;99.90
3866;DHT22;1948;53.250;10.412;2023-08-06T04:34:55;17.10;99.90
3866;DHT22;1948;53.250;10.412;2023-08-06T04:37:22;17.10;99.90
3866;DHT22;1948;53.250;10.412;2023-08-06T04:39:49;17.10;99.90
3866;DHT22;1948;53.250;10.412;2023-08-06T04:42:20;17.10;99.90
3866;DHT22;1948;53.250;10.412;2023-08-06T04:44:52;17.10;99.90
3866;DHT22;1948;53.250;10.412;2023-08-06T04:47:19;17.10;99.90
3866;DHT22;1948;53.250;10.412;2023-08-06T04:49:48;17.10;99.90
3866;DHT22;1948;53.250;10.412;2023-08-06T04:52:18;17.00;99.90
3866;DHT22;1948;53.250;10.412;2023-08-06T04:54:47;17.10;99.90
3866;DHT22;1948;53.250;10.412;2023-08-06T04:57:14;17.00;99.90
3866;DHT22;1948;53.250;10.412;2023-08-06T04:59:41;17.10;99.90
3866;DHT22;1948;53.250;10.412;2023-08-06T05:02:13;17.10;99.90
3866;DHT22;1948;53.250;10.412;2023-08-06T05:04:40;17.10;99.90
3866;DHT22;1948;53.250;10.412;2023-08-06T05:07:10;17.10;99.90
3866;DHT22;1948;53.250;10.412;2023-08-06T05:09:39;17.10;99.90
3866;DHT22;1948;53.250;10.412;2023-08-06T05:12:07;17.10;99.90
3866;DHT22;1948;53.250;10.412;2023-08-06T05:14:36;17.20;99.90
3866;DHT22;1948;53.250;10.412;2023-08-06T05:17:03;17.20;99.90
3866;DHT22;1948;53.250;10.412;2023-08-06T05:19:31;17.20;99.90
3866;DHT22;1948;53.250;10.412;2023-08-06T05:21:58;17.20;99.90
3866;DHT22;1948;53.250;10.412;2023-08-06T05:24:25;17.30;99.90
3866;DHT22;1948;53.250;10.412;2023-08-06T05:26:56;17.30;99.90
3866;DHT22;1948;53.250;10.412;2023-08-06T05:29:23;17.30;99.90
3866;DHT22;1948;53.250;10.412;2023-08-06T05:31:50;17.30;99.90
3866;DHT22;1948;53.250;10.412;2023-08-06T05:34:17;17.40;99.90
3866;DHT22;1948;53.250;10.412;2023-08-06T05:36:46;17.40;99.90
3866;DHT22;1948;53.250;10.412;2023-08-06T05:39:15;17.40;99.90
3866;DHT22;1948;53.250;10.412;2023-08-06T05:41:42;17.40;99.90
3866;DHT22;1948;53.250;10.412;2023-08-06T05:44:09;17.40;99.90
3866;DHT22;1948;53.250;10.412;2023-08-06T05:46:36;17.40;99.90
3866;DHT22;1948;53.250;10.412;2023-08-06T05:49:06;17.50;99.90
3866;DHT22;1948;53.250;10.412;2023-08-06T05:51:33;17.50;99.90
3866;DHT22;1948;53.250;10.412;2023-08-06T05:54:00;17.50;99.90
3866;DHT22;1948;53.250;10.412;2023-08-06T05:56:29;17.60;99.90
3866;DHT22;1948;53.250;10.412;2023-08-06T05:58:58;17.60;99.90
3866;DHT22;1948;53.250;10.412;2023-08-06T06:01:25;17.60;99.90
3866;DHT22;1948;53.250;10.412;2023-08-06T06:03:52;17.70;99.90
3866;DHT22;1948;53.250;10.412;2023-08-06T06:06:19;17.70;99.90
3866;DHT22;1948;53.250;10.412;2023-08-06T06:08:49;17.70;99.90
3866;DHT22;1948;53.250;10.412;2023-08-06T06:11:16;17.70;99.90
3866;DHT22;1948;53.250;10.412;2023-08-06T06:13:43;17.80;99.90
3866;DHT22;1948;53.250;10.412;2023-08-06T06:16:10;17.80;99.90
3866;DHT22;1948;53.250;10.412;2023-08-06T06:18:39;17.80;99.90
3866;DHT22;1948;53.250;10.412;2023-08-06T06:21:06;17.80;99.90
3866;DHT22;1948;53.250;10.412;2023-08-06T06:23:36;17.80;99.90
3866;DHT22;1948;53.250;10.412;2023-08-06T06:26:02;17.80;99.90
3866;DHT22;1948;53.250;10.412;2023-08-06T06:28:29;17.90;99.90
3866;DHT22;1948;53.250;10.412;2023-08-06T06:31:00;17.90;99.90
3866;DHT22;1948;53.250;10.412;2023-08-06T06:33:30;17.90;99.90
3866;DHT22;1948;53.250;10.412;2023-08-06T06:35:57;17.90;99.90
3866;DHT22;1948;53.250;10.412;2023-08-06T06:38:24;18.00;99.90
3866;DHT22;1948;53.250;10.412;2023-08-06T06:40:55;18.00;99.90
3866;DHT22;1948;53.250;10.412;2023-08-06T06:43:26;18.00;99.90
3866;DHT22;1948;53.250;10.412;2023-08-06T06:45:55;18.10;99.90
3866;DHT22;1948;53.250;10.412;2023-08-06T06:48:28;18.10;99.90
3866;DHT22;1948;53.250;10.412;2023-08-06T06:50:56;18.10;99.90
3866;DHT22;1948;53.250;10.412;2023-08-06T06:53:23;18.10;99.90
3866;DHT22;1948;53.250;10.412;2023-08-06T06:56:00;18.20;99.90
3866;DHT22;1948;53.250;10.412;2023-08-06T06:58:28;18.20;99.90
3866;DHT22;1948;53.250;10.412;2023-08-06T07:00:58;18.20;99.90
3866;DHT22;1948;53.250;10.412;2023-08-06T07:03:25;18.20;99.90
3866;DHT22;1948;53.250;10.412;2023-08-06T07:05:57;18.20;99.90
3866;DHT22;1948;53.250;10.412;2023-08-06T07:08:27;18.20;99.90
3866;DHT22;1948;53.250;10.412;2023-08-06T07:11:04;18.20;99.90
3866;DHT22;1948;53.250;10.412;2023-08-06T07:13:35;18.30;99.90
3866;DHT22;1948;53.250;10.412;2023-08-06T07:16:02;18.30;99.90
3866;DHT22;1948;53.250;10.412;2023-08-06T07:18:33;18.30;99.90
3866;DHT22;1948;53.250;10.412;2023-08-06T07:21:00;18.20;99.90
3866;DHT22;1948;53.250;10.412;2023-08-06T07:23:30;18.30;99.90
3866;DHT22;1948;53.250;10.412;2023-08-06T07:25:57;18.30;99.90
3866;DHT22;1948;53.250;10.412;2023-08-06T07:28:29;18.40;99.90
3866;DHT22;1948;53.250;10.412;2023-08-06T07:30:56;18.40;99.90
3866;DHT22;1948;53.250;10.412;2023-08-06T07:33:25;18.50;99.90
3866;DHT22;1948;53.250;10.412;2023-08-06T07:35:57;18.60;99.90
3866;DHT22;1948;53.250;10.412;2023-08-06T07:38:24;18.50;99.90
3866;DHT22;1948;53.250;10.412;2023-08-06T07:40:54;18.60;99.90
3866;DHT22;1948;53.250;10.412;2023-08-06T07:43:21;18.60;99.90
3866;DHT22;1948;53.250;10.412;2023-08-06T07:45:48;18.60;99.90
3866;DHT22;1948;53.250;10.412;2023-08-06T07:48:16;18.70;99.90
3866;DHT22;1948;53.250;10.412;2023-08-06T07:50:43;18.70;99.90
3866;DHT22;1948;53.250;10.412;2023-08-06T07:53:16;18.70;99.90
3866;DHT22;1948;53.250;10.412;2023-08-06T07:55:50;18.70;99.90
3866;DHT22;1948;53.250;10.412;2023-08-06T07:58:18;18.70;99.90
3866;DHT22;1948;53.250;10.412;2023-08-06T08:00:46;18.70;99.90
3866;DHT22;1948;53.250;10.412;2023-08-06T08:03:15;18.70;99.90
3866;DHT22;1948;53.250;10.412;2023-08-06T08:05:44;18.70;99.90
3866;DHT22;1948;53.250;10.412;2023-08-06T08:08:11;18.70;99.90
3866;DHT22;1948;53.250;10.412;2023-08-06T08:10:39;18.70;99.90
3866;DHT22;1948;53.250;10.412;2023-08-06T08:13:08;18.70;99.90
3866;DHT22;1948;53.250;10.412;2023-08-06T08:15:41;18.60;99.90
3866;DHT22;1948;53.250;10.412;2023-08-06T08:18:11;18.60;99.90
3866;DHT22;1948;53.250;10.412;2023-08-06T08:20:41;18.70;99.90
3866;DHT22;1948;53.250;10.412;2023-08-06T08:23:13;18.70;99.90
3866;DHT22;1948;53.250;10.412;2023-08-06T08:25:40;18.70;99.90
3866;DHT22;1948;53.250;10.412;2023-08-06T08:28:10;18.70;99.90
3866;DHT22;1948;53.250;10.412;2023-08-06T08:30:37;18.80;99.90
3866;DHT22;1948;53.250;10.412;2023-08-06T08:33:04;18.70;99.90
3866;DHT22;1948;53.250;10.412;2023-08-06T08:35:31;18.80;99.90
3866;DHT22;1948;53.250;10.412;2023-08-06T08:38:04;18.90;99.90
3866;DHT22;1948;53.250;10.412;2023-08-06T08:40:44;18.90;99.90
3866;DHT22;1948;53.250;10.412;2023-08-06T08:43:16;19.10;99.90
3866;DHT22;1948;53.250;10.412;2023-08-06T08:45:50;19.10;99.90
3866;DHT22;1948;53.250;10.412;2023-08-06T08:48:19;19.10;99.90
3866;DHT22;1948;53.250;10.412;2023-08-06T08:50:57;19.10;99.90
3866;DHT22;1948;53.250;10.412;2023-08-06T08:53:37;19.20;99.90
3866;DHT22;1948;53.250;10.412;2023-08-06T08:56:23;19.20;99.90
3866;DHT22;1948;53.250;10.412;2023-08-06T08:58:51;19.20;99.90
3866;DHT22;1948;53.250;10.412;2023-08-06T09:01:21;19.30;99.90
3866;DHT22;1948;53.250;10.412;2023-08-06T09:03:51;19.30;99.90
3866;DHT22;1948;53.250;10.412;2023-08-06T09:06:23;19.40;99.90
3866;DHT22;1948;53.250;10.412;2023-08-06T09:09:12;19.50;99.90
3866;DHT22;1948;53.250;10.412;2023-08-06T09:11:45;19.50;99.90
3866;DHT22;1948;53.250;10.412;2023-08-06T09:14:21;19.60;99.90
3866;DHT22;1948;53.250;10.412;2023-08-06T09:16:52;19.60;99.90
3866;DHT22;1948;53.250;10.412;2023-08-06T09:19:22;19.70;99.90
3866;DHT22;1948;53.250;10.412;2023-08-06T09:21:51;19.80;99.90
3866;DHT22;1948;53.250;10.412;2023-08-06T09:24:18;19.80;99.90
3866;DHT22;1948;53.250;10.412;2023-08-06T09:26:46;19.90;99.90
3866;DHT22;1948;53.250;10.412;2023-08-06T09:29:13;19.90;99.90
3866;DHT22;1948;53.250;10.412;2023-08-06T09:31:45;20.00;99.90
3866;DHT22;1948;53.250;10.412;2023-08-06T09:34:18;20.00;99.90
3866;DHT22;1948;53.250;10.412;2023-08-06T09:39:35;20.10;99.90
3866;DHT22;1948;53.250;10.412;2023-08-06T09:42:02;20.20;99.90
3866;DHT22;1948;53.250;10.412;2023-08-06T09:44:32;20.40;99.90
3866;DHT22;1948;53.250;10.412;2023-08-06T09:47:02;20.40;99.90
3866;DHT22;1948;53.250;10.412;2023-08-06T09:52:02;20.50;99.90
3866;DHT22;1948;53.250;10.412;2023-08-06T09:54:30;20.60;99.90
3866;DHT22;1948;53.250;10.412;2023-08-06T09:56:57;20.70;99.90
3866;DHT22;1948;53.250;10.412;2023-08-06T09:59:24;20.80;99.90
3866;DHT22;1948;53.250;10.412;2023-08-06T10:01:51;20.90;99.90
3866;DHT22;1948;53.250;10.412;2023-08-06T10:04:23;20.90;99.90
3866;DHT22;1948;53.250;10.412;2023-08-06T10:06:53;21.00;99.90
3866;DHT22;1948;53.250;10.412;2023-08-06T10:09:21;21.00;99.90
3866;DHT22;1948;53.250;10.412;2023-08-06T10:11:52;21.00;99.90
3866;DHT22;1948;53.250;10.412;2023-08-06T10:14:25;21.00;99.90
3866;DHT22;1948;53.250;10.412;2023-08-06T10:16:57;21.00;99.90
3866;DHT22;1948;53.250;10.412;2023-08-06T10:19:26;20.90;99.90
3866;DHT22;1948;53.250;10.412;2023-08-06T10:22:17;21.10;99.90
3866;DHT22;1948;53.250;10.412;2023-08-06T10:24:58;21.20;99.90
3866;DHT22;1948;53.250;10.412;2023-08-06T10:27:36;21.20;99.90
3866;DHT22;1948;53.250;10.412;2023-08-06T10:30:26;21.40;99.90
3866;DHT22;1948;53.250;10.412;2023-08-06T10:33:03;21.50;99.90
3866;DHT22;1948;53.250;10.412;2023-08-06T10:35:31;21.30;99.90
3866;DHT22;1948;53.250;10.412;2023-08-06T10:38:09;21.30;99.90
3866;DHT22;1948;53.250;10.412;2023-08-06T10:40:39;21.30;99.90
3866;DHT22;1948;53.250;10.412;2023-08-06T10:43:28;21.30;99.90
3866;DHT22;1948;53.250;10.412;2023-08-06T10:45:58;21.40;99.90
3866;DHT22;1948;53.250;10.412;2023-08-06T10:51:13;21.80;99.90
3866;DHT22;1948;53.250;10.412;2023-08-06T10:53:43;22.40;99.90
3866;DHT22;1948;53.250;10.412;2023-08-06T10:56:19;22.90;99.90
3866;DHT22;1948;53.250;10.412;2023-08-06T10:58:50;23.10;99.90
3866;DHT22;1948;53.250;10.412;2023-08-06T11:01:23;23.40;99.90
3866;DHT22;1948;53.250;10.412;2023-08-06T11:03:51;23.50;99.90
3866;DHT22;1948;53.250;10.412;2023-08-06T11:06:21;23.60;99.90
3866;DHT22;1948;53.250;10.412;2023-08-06T11:08:53;23.80;99.90
3866;DHT22;1948;53.250;10.412;2023-08-06T11:11:22;24.00;99.90
3866;DHT22;1948;53.250;10.412;2023-08-06T11:13:51;24.00;99.90
3866;DHT22;1948;53.250;10.412;2023-08-06T11:16:23;23.90;99.90
3866;DHT22;1948;53.250;10.412;2023-08-06T11:18:52;23.80;99.90
3866;DHT22;1948;53.250;10.412;2023-08-06T11:21:21;23.60;99.90
3866;DHT22;1948;53.250;10.412;2023-08-06T11:23:51;23.50;99.90
3866;DHT22;1948;53.250;10.412;2023-08-06T11:26:19;23.40;99.90
3866;DHT22;1948;53.250;10.412;2023-08-06T11:28:47;23.30;99.90
3866;DHT22;1948;53.250;10.412;2023-08-06T11:31:23;23.10;99.90
3866;DHT22;1948;53.250;10.412;2023-08-06T11:33:51;22.90;99.90
3866;DHT22;1948;53.250;10.412;2023-08-06T11:36:31;22.90;99.90
3866;DHT22;1948;53.250;10.412;2023-08-06T11:39:03;22.80;99.90
3866;DHT22;1948;53.250;10.412;2023-08-06T11:41:34;22.70;99.90
3866;DHT22;1948;53.250;10.412;2023-08-06T11:44:04;22.70;99.90
3866;DHT22;1948;53.250;10.412;2023-08-06T11:46:53;22.80;99.90
3866;DHT22;1948;53.250;10.412;2023-08-06T11:52:21;22.70;99.90
3866;DHT22;1948;53.250;10.412;2023-08-06T11:55:06;22.90;99.90
3866;DHT22;1948;53.250;10.412;2023-08-06T11:57:44;23.00;99.90
3866;DHT22;1948;53.250;10.412;2023-08-06T12:00:15;23.10;99.90
3866;DHT22;1948;53.250;10.412;2023-08-06T12:02:45;23.00;99.90
3866;DHT22;1948;53.250;10.412;2023-08-06T12:07:49;22.90;99.90
3866;DHT22;1948;53.250;10.412;2023-08-06T12:10:24;23.00;99.90
3866;DHT22;1948;53.250;10.412;2023-08-06T12:12:52;23.10;99.90
3866;DHT22;1948;53.250;10.412;2023-08-06T12:15:20;23.30;99.90
3866;DHT22;1948;53.250;10.412;2023-08-06T12:17:50;23.50;99.90
3866;DHT22;1948;53.250;10.412;2023-08-06T12:20:22;23.60;99.90
3866;DHT22;1948;53.250;10.412;2023-08-06T12:22:49;23.80;99.90
3866;DHT22;1948;53.250;10.412;2023-08-06T12:25:19;23.90;99.90
3866;DHT22;1948;53.250;10.412;2023-08-06T12:27:50;23.90;99.90
3866;DHT22;1948;53.250;10.412;2023-08-06T12:30:19;23.90;99.90
3866;DHT22;1948;53.250;10.412;2023-08-06T12:32:46;23.90;99.90
3866;DHT22;1948;53.250;10.412;2023-08-06T12:35:15;23.80;99.90
3866;DHT22;1948;53.250;10.412;2023-08-06T12:37:43;23.80;99.90
3866;DHT22;1948;53.250;10.412;2023-08-06T12:40:14;23.70;99.90
3866;DHT22;1948;53.250;10.412;2023-08-06T12:43:02;23.60;99.90
3866;DHT22;1948;53.250;10.412;2023-08-06T12:45:29;23.70;99.90
3866;DHT22;1948;53.250;10.412;2023-08-06T12:47:56;23.60;99.90
3866;DHT22;1948;53.250;10.412;2023-08-06T12:50:23;23.60;99.90
3866;DHT22;1948;53.250;10.412;2023-08-06T12:52:51;23.80;99.90
3866;DHT22;1948;53.250;10.412;2023-08-06T12:55:18;23.90;99.90
3866;DHT22;1948;53.250;10.412;2023-08-06T12:57:45;24.20;99.90
3866;DHT22;1948;53.250;10.412;2023-08-06T13:00:28;24.20;99.90
3866;DHT22;1948;53.250;10.412;2023-08-06T13:02:55;24.40;99.90
3866;DHT22;1948;53.250;10.412;2023-08-06T13:05:24;24.50;99.90
3866;DHT22;1948;53.250;10.412;2023-08-06T13:07:51;24.40;99.90
3866;DHT22;1948;53.250;10.412;2023-08-06T13:10:21;24.30;99.90
3866;DHT22;1948;53.250;10.412;2023-08-06T13:12:51;24.20;99.90
3866;DHT22;1948;53.250;10.412;2023-08-06T13:15:18;24.10;99.90
3866;DHT22;1948;53.250;10.412;2023-08-06T13:17:49;24.20;99.90
3866;DHT22;1948;53.250;10.412;2023-08-06T13:20:19;24.30;99.90
3866;DHT22;1948;53.250;10.412;2023-08-06T13:22:49;24.20;99.90
3866;DHT22;1948;53.250;10.412;2023-08-06T13:25:19;23.90;99.90
3866;DHT22;1948;53.250;10.412;2023-08-06T13:27:50;23.80;99.90
3866;DHT22;1948;53.250;10.412;2023-08-06T13:30:17;23.60;99.90
3866;DHT22;1948;53.250;10.412;2023-08-06T13:32:47;23.60;99.90
3866;DHT22;1948;53.250;10.412;2023-08-06T13:35:14;23.50;99.90
3866;DHT22;1948;53.250;10.412;2023-08-06T13:37:43;23.60;99.90
3866;DHT22;1948;53.250;10.412;2023-08-06T13:40:10;23.70;99.90
3866;DHT22;1948;53.250;10.412;2023-08-06T13:42:42;23.80;99.90
3866;DHT22;1948;53.250;10.412;2023-08-06T13:45:09;23.90;99.90
3866;DHT22;1948;53.250;10.412;2023-08-06T13:47:36;24.00;99.90
3866;DHT22;1948;53.250;10.412;2023-08-06T13:50:04;24.10;99.90
3866;DHT22;1948;53.250;10.412;2023-08-06T13:52:32;24.10;99.90
3866;DHT22;1948;53.250;10.412;2023-08-06T13:55:10;24.00;99.90
3866;DHT22;1948;53.250;10.412;2023-08-06T13:57:37;24.00;99.90
3866;DHT22;1948;53.250;10.412;2023-08-06T14:00:07;24.10;99.90
3866;DHT22;1948;53.250;10.412;2023-08-06T14:02:36;24.00;99.90
3866;DHT22;1948;53.250;10.412;2023-08-06T14:05:05;24.00;99.90
3866;DHT22;1948;53.250;10.412;2023-08-06T14:07:32;23.90;99.90
3866;DHT22;1948;53.250;10.412;2023-08-06T14:09:59;23.80;99.90
3866;DHT22;1948;53.250;10.412;2023-08-06T14:12:26;23.70;99.90
3866;DHT22;1948;53.250;10.412;2023-08-06T14:14:55;23.70;99.90
3866;DHT22;1948;53.250;10.412;2023-08-06T14:17:24;23.70;99.90
3866;DHT22;1948;53.250;10.412;2023-08-06T14:19:51;23.50;99.90
3866;DHT22;1948;53.250;10.412;2023-08-06T14:22:18;23.60;99.90
3866;DHT22;1948;53.250;10.412;2023-08-06T14:24:48;23.60;99.90
3866;DHT22;1948;53.250;10.412;2023-08-06T14:27:18;23.50;99.90
3866;DHT22;1948;53.250;10.412;2023-08-06T14:29:45;23.40;99.90
3866;DHT22;1948;53.250;10.412;2023-08-06T14:32:14;23.40;99.90
3866;DHT22;1948;53.250;10.412;2023-08-06T14:34:45;23.60;99.90
3866;DHT22;1948;53.250;10.412;2023-08-06T14:37:12;23.60;99.90
3866;DHT22;1948;53.250;10.412;2023-08-06T14:39:39;23.60;99.90
3866;DHT22;1948;53.250;10.412;2023-08-06T14:42:06;23.50;99.90
3866;DHT22;1948;53.250;10.412;2023-08-06T14:44:35;23.70;99.90
3866;DHT22;1948;53.250;10.412;2023-08-06T14:47:08;23.70;99.90
3866;DHT22;1948;53.250;10.412;2023-08-06T14:49:35;23.80;99.90
3866;DHT22;1948;53.250;10.412;2023-08-06T14:52:02;23.80;99.90
3866;DHT22;1948;53.250;10.412;2023-08-06T14:54:32;23.70;99.90
3866;DHT22;1948;53.250;10.412;2023-08-06T14:56:59;23.80;99.90
3866;DHT22;1948;53.250;10.412;2023-08-06T14:59:31;23.70;99.90
3866;DHT22;1948;53.250;10.412;2023-08-06T15:02:00;23.60;99.90
3866;DHT22;1948;53.250;10.412;2023-08-06T15:04:27;23.60;99.90
3866;DHT22;1948;53.250;10.412;2023-08-06T15:06:54;23.60;99.90
3866;DHT22;1948;53.250;10.412;2023-08-06T15:09:21;23.60;99.90
3866;DHT22;1948;53.250;10.412;2023-08-06T15:11:49;23.50;99.90
3866;DHT22;1948;53.250;10.412;2023-08-06T15:14:16;23.50;99.90
3866;DHT22;1948;53.250;10.412;2023-08-06T15:16:46;23.40;99.90
3866;DHT22;1948;53.250;10.412;2023-08-06T15:19:20;23.40;99.90
3866;DHT22;1948;53.250;10.412;2023-08-06T15:21:49;23.40;99.90
3866;DHT22;1948;53.250;10.412;2023-08-06T15:24:18;23.20;99.90
3866;DHT22;1948;53.250;10.412;2023-08-06T15:26:45;23.00;99.90
3866;DHT22;1948;53.250;10.412;2023-08-06T15:29:12;23.00;99.90
3866;DHT22;1948;53.250;10.412;2023-08-06T15:31:42;23.00;99.90
3866;DHT22;1948;53.250;10.412;2023-08-06T15:34:11;22.90;99.90
3866;DHT22;1948;53.250;10.412;2023-08-06T15:36:38;22.80;99.90
3866;DHT22;1948;53.250;10.412;2023-08-06T15:39:05;22.80;99.90
3866;DHT22;1948;53.250;10.412;2023-08-06T15:41:38;22.80;99.90
3866;DHT22;1948;53.250;10.412;2023-08-06T15:44:07;22.50;99.90
3866;DHT22;1948;53.250;10.412;2023-08-06T15:46:34;22.40;99.90
3866;DHT22;1948;53.250;10.412;2023-08-06T15:49:05;22.20;99.90
3866;DHT22;1948;53.250;10.412;2023-08-06T15:51:32;22.30;99.90
3866;DHT22;1948;53.250;10.412;2023-08-06T15:54:05;22.30;99.90
3866;DHT22;1948;53.250;10.412;2023-08-06T15:56:32;22.30;99.90
3866;DHT22;1948;53.250;10.412;2023-08-06T15:59:26;22.20;99.90
3866;DHT22;1948;53.250;10.412;2023-08-06T16:01:55;22.30;99.90
3866;DHT22;1948;53.250;10.412;2023-08-06T16:04:28;22.30;99.90
3866;DHT22;1948;53.250;10.412;2023-08-06T16:06:59;22.30;99.90
3866;DHT22;1948;53.250;10.412;2023-08-06T16:09:27;22.20;99.90
3866;DHT22;1948;53.250;10.412;2023-08-06T16:11:54;22.10;99.90
3866;DHT22;1948;53.250;10.412;2023-08-06T16:14:21;22.10;99.90
3866;DHT22;1948;53.250;10.412;2023-08-06T16:16:50;22.10;99.90
3866;DHT22;1948;53.250;10.412;2023-08-06T16:19:17;22.00;99.90
3866;DHT22;1948;53.250;10.412;2023-08-06T16:21:44;22.00;99.90